Time;durP1;ratioP1;P1;durP2;ratioP2;P2;SDS_P1;SDS_P2;PMS_P1;PMS_P2;Temp;Humidity;BMP_temperature;BMP_pressure;BME280_temperature;BME280_humidity;BME280_pressure;Samples;Min_cycle;Max_cycle;Signal;HPM_P1;HPM_P2
2021/12/22 00:02:07;;;;;;;17.90;9.48;;;-2.70;99.90;;;;;;5105266;27;20028;-69
2021/12/22 00:04:39;;;;;;;15.98;9.93;;;-2.60;99.90;;;;;;5102022;28;20042;-70
2021/12/22 00:07:04;;;;;;;17.52;9.43;;;-2.70;99.90;;;;;;5096271;27;20027;-71
2021/12/22 00:09:30;;;;;;;19.50;9.68;;;-2.60;99.90;;;;;;5106986;27;20042;-70
2021/12/22 00:11:56;;;;;;;16.50;9.80;;;-2.60;99.90;;;;;;5105224;27;20356;-70
2021/12/22 00:14:21;;;;;;;20.90;9.32;;;-2.70;99.90;;;;;;5102290;27;20015;-69
2021/12/22 00:16:47;;;;;;;17.27;9.52;;;-2.60;99.90;;;;;;5100281;27;20424;-70
2021/12/22 00:19:13;;;;;;;14.82;9.13;;;-2.60;99.90;;;;;;5110866;27;20455;-69
2021/12/22 00:21:38;;;;;;;19.73;9.38;;;-2.60;99.90;;;;;;5113584;27;20031;-70
2021/12/22 00:24:04;;;;;;;17.52;9.70;;;-2.60;99.90;;;;;;5100263;27;20087;-70
2021/12/22 00:26:30;;;;;;;14.68;8.57;;;-2.60;99.90;;;;;;5095623;28;20429;-70
2021/12/22 00:28:56;;;;;;;17.98;9.23;;;-2.70;99.90;;;;;;5082248;22;20068;-67
2021/12/22 00:31:22;;;;;;;17.83;9.30;;;-2.80;99.90;;;;;;5058277;28;20120;-67
2021/12/22 00:33:50;;;;;;;17.15;9.98;;;-2.80;99.90;;;;;;5073794;28;20028;-69
2021/12/22 00:36:19;;;;;;;20.25;9.23;;;-2.90;99.90;;;;;;5070797;28;20024;-67
2021/12/22 00:38:45;;;;;;;19.90;9.55;;;-2.90;99.90;;;;;;5065730;28;20016;-67
2021/12/22 00:41:11;;;;;;;16.15;9.27;;;-2.90;99.90;;;;;;5090162;28;20035;-67
2021/12/22 00:43:37;;;;;;;15.32;8.70;;;-2.90;99.90;;;;;;5068459;28;20025;-67
2021/12/22 00:46:03;;;;;;;17.70;9.57;;;-2.90;99.90;;;;;;5073326;28;20467;-69
2021/12/22 00:48:29;;;;;;;16.00;9.00;;;-3.00;99.90;;;;;;5057381;28;20060;-67
2021/12/22 00:50:55;;;;;;;20.33;9.98;;;-3.00;99.90;;;;;;5061485;28;20145;-67
2021/12/22 00:53:20;;;;;;;16.85;9.50;;;-3.00;99.90;;;;;;5066348;28;20024;-70
2021/12/22 00:55:48;;;;;;;18.33;9.73;;;-2.90;99.90;;;;;;5087411;28;20173;-69
2021/12/22 00:58:13;;;;;;;17.30;9.90;;;-3.00;99.90;;;;;;5060212;28;20429;-68
2021/12/22 01:00:39;;;;;;;17.58;9.23;;;-3.00;99.90;;;;;;5065497;28;20104;-68
2021/12/22 01:03:05;;;;;;;13.90;8.75;;;-3.10;99.90;;;;;;5063643;28;20373;-67
2021/12/22 01:05:32;;;;;;;18.38;8.75;;;-3.10;99.90;;;;;;5068059;28;20161;-67
2021/12/22 01:07:57;;;;;;;17.25;9.38;;;-3.10;99.90;;;;;;5069344;28;20043;-67
2021/12/22 01:10:27;;;;;;;17.70;9.00;;;-3.20;99.90;;;;;;5064809;28;20028;-68
2021/12/22 01:12:55;;;;;;;16.10;9.20;;;-3.20;99.90;;;;;;5071847;28;20063;-67
2021/12/22 01:15:22;;;;;;;14.23;9.07;;;-3.30;99.90;;;;;;5064347;28;20016;-68
2021/12/22 01:17:56;;;;;;;17.70;9.25;;;-3.20;99.90;;;;;;5072127;28;20051;-67
2021/12/22 01:20:27;;;;;;;19.92;9.48;;;-3.20;99.90;;;;;;5071962;28;20028;-69
2021/12/22 01:23:02;;;;;;;15.40;9.15;;;-3.20;99.90;;;;;;5067604;28;20154;-70
2021/12/22 01:25:28;;;;;;;17.45;8.73;;;-3.10;99.90;;;;;;5069342;28;20028;-67
2021/12/22 01:27:54;;;;;;;19.05;9.75;;;-3.10;99.90;;;;;;5064538;28;20037;-68
2021/12/22 01:30:28;;;;;;;18.40;9.30;;;-3.10;99.90;;;;;;5061150;28;20077;-68
2021/12/22 01:32:57;;;;;;;15.45;8.88;;;-3.10;99.90;;;;;;5072992;28;20549;-68
2021/12/22 01:35:27;;;;;;;20.95;9.02;;;-3.10;99.90;;;;;;5075888;28;20028;-68
2021/12/22 01:37:53;;;;;;;14.85;9.02;;;-3.10;99.90;;;;;;5068350;28;20059;-67
2021/12/22 01:40:20;;;;;;;17.33;8.73;;;-3.10;99.90;;;;;;5069436;28;20020;-68
2021/12/22 01:42:47;;;;;;;16.77;8.75;;;-3.10;99.90;;;;;;5068599;28;20126;-67
2021/12/22 01:51:33;;;;;;;;;;;-3.20;99.90;;;;;;5072402;28;20048;-67
2021/12/22 01:54:13;;;;;;;12.68;7.78;;;-3.20;99.90;;;;;;5071981;28;20344;-67
2021/12/22 01:56:39;;;;;;;15.88;8.27;;;-3.30;99.90;;;;;;5083683;28;20027;-68
2021/12/22 01:59:08;;;;;;;15.02;8.60;;;-3.30;99.90;;;;;;5067519;28;20024;-67
2021/12/22 02:01:35;;;;;;;17.48;8.80;;;-3.30;99.90;;;;;;5063334;28;20477;-68
2021/12/22 02:04:03;;;;;;;16.17;8.45;;;-3.30;99.90;;;;;;5070578;28;20433;-68
2021/12/22 02:06:29;;;;;;;17.65;8.80;;;-3.30;99.90;;;;;;5068500;28;20053;-68
2021/12/22 02:08:55;;;;;;;15.82;8.75;;;-3.30;99.90;;;;;;5057755;28;20031;-67
2021/12/22 02:11:22;;;;;;;14.25;8.57;;;-3.30;99.90;;;;;;5064712;28;20103;-67
2021/12/22 02:13:55;;;;;;;15.25;8.50;;;-3.40;99.90;;;;;;5072179;28;20078;-67
2021/12/22 02:16:28;;;;;;;18.27;8.85;;;-3.40;99.90;;;;;;5062794;28;20074;-67
2021/12/22 02:18:55;;;;;;;17.05;9.93;;;-3.40;99.90;;;;;;5070662;28;20028;-67
2021/12/22 02:21:23;;;;;;;17.13;8.38;;;-3.40;99.90;;;;;;5070581;28;20025;-67
2021/12/22 02:23:49;;;;;;;13.20;8.35;;;-3.40;99.90;;;;;;5067346;28;20081;-68
2021/12/22 02:26:23;;;;;;;13.15;8.68;;;-3.30;99.90;;;;;;5068915;28;20024;-68
2021/12/22 02:28:57;;;;;;;14.40;8.57;;;-3.30;99.90;;;;;;5066736;28;20030;-66
2021/12/22 02:31:23;;;;;;;15.05;8.85;;;-3.30;99.90;;;;;;5072613;28;20051;-66
2021/12/22 02:33:50;;;;;;;14.45;9.10;;;-3.30;99.90;;;;;;5062210;28;20479;-68
2021/12/22 02:36:23;;;;;;;14.48;8.23;;;-3.30;99.90;;;;;;5071651;28;20026;-70
2021/12/22 02:39:00;;;;;;;18.42;8.93;;;-3.30;99.90;;;;;;5058435;28;20028;-67
2021/12/22 02:41:29;;;;;;;17.95;9.48;;;-3.30;99.90;;;;;;5058041;28;20020;-66
2021/12/22 02:43:57;;;;;;;15.02;8.65;;;-3.30;99.90;;;;;;5058113;28;20547;-67
2021/12/22 02:46:30;;;;;;;19.48;9.32;;;-3.30;99.90;;;;;;5061457;28;20119;-66
2021/12/22 02:48:57;;;;;;;14.80;8.82;;;-3.30;99.90;;;;;;5059602;28;20024;-69
2021/12/22 02:51:23;;;;;;;16.13;8.57;;;-3.30;99.90;;;;;;5051346;28;20119;-67
2021/12/22 02:56:37;;;;;;;16.55;8.88;;;-3.30;99.90;;;;;;5075964;28;20081;-70
2021/12/22 03:02:20;;;;;;;13.18;7.85;;;-3.40;99.90;;;;;;5081156;28;20702;-71
2021/12/22 03:04:56;;;;;;;15.73;8.27;;;-3.40;99.90;;;;;;5059322;28;20028;-70
2021/12/22 03:07:25;;;;;;;12.90;7.78;;;-3.40;99.90;;;;;;5055542;28;20481;-70
2021/12/22 03:10:12;;;;;;;15.70;8.52;;;-3.50;99.90;;;;;;5062334;28;20064;-68
2021/12/22 03:12:39;;;;;;;15.63;8.50;;;-3.50;99.90;;;;;;5065966;28;20132;-70
2021/12/22 03:15:07;;;;;;;15.75;9.45;;;-3.60;99.90;;;;;;5066440;28;20021;-69
2021/12/22 03:17:33;;;;;;;15.13;9.10;;;-3.70;99.90;;;;;;5067012;28;20078;-69
2021/12/22 03:19:58;;;;;;;15.63;8.15;;;-3.80;99.90;;;;;;5066949;28;20384;-70
2021/12/22 03:22:24;;;;;;;18.60;9.15;;;-3.80;99.90;;;;;;5056243;28;20078;-69
2021/12/22 03:24:51;;;;;;;16.13;8.75;;;-3.80;99.90;;;;;;5066162;28;20070;-69
2021/12/22 03:27:22;;;;;;;13.45;8.32;;;-3.70;99.90;;;;;;5066346;28;20115;-69
2021/12/22 03:29:48;;;;;;;19.35;9.23;;;-3.70;99.90;;;;;;5070210;28;20071;-69
2021/12/22 03:32:13;;;;;;;17.88;8.60;;;-3.60;99.90;;;;;;5068896;28;20020;-69
2021/12/22 03:34:40;;;;;;;19.05;9.43;;;-3.70;99.90;;;;;;5071172;28;20027;-69
2021/12/22 03:37:06;;;;;;;15.75;9.25;;;-3.70;99.90;;;;;;5077341;28;20103;-69
2021/12/22 03:39:32;;;;;;;16.77;8.90;;;-3.70;99.90;;;;;;5061556;28;20440;-69
2021/12/22 03:41:58;;;;;;;14.52;8.55;;;-3.80;99.90;;;;;;5062040;28;20122;-69
2021/12/22 03:44:24;;;;;;;18.35;8.85;;;-3.80;99.90;;;;;;5066422;28;20031;-69
2021/12/22 03:46:51;;;;;;;16.50;9.00;;;-3.90;99.90;;;;;;5076913;28;20032;-69
2021/12/22 03:49:17;;;;;;;17.55;8.75;;;-3.90;99.90;;;;;;5061968;28;20023;-69
2021/12/22 03:51:42;;;;;;;16.45;8.30;;;-3.90;99.90;;;;;;5058783;28;20020;-69
2021/12/22 03:54:11;;;;;;;17.13;8.98;;;-3.80;99.90;;;;;;5062564;28;20031;-69
2021/12/22 03:56:37;;;;;;;15.07;8.55;;;-3.80;99.90;;;;;;5062484;28;20028;-69
2021/12/22 03:59:04;;;;;;;14.90;8.10;;;-3.80;99.90;;;;;;5050755;28;20020;-69
2021/12/22 04:01:30;;;;;;;15.48;8.18;;;-3.80;99.90;;;;;;5062588;28;20487;-69
2021/12/22 04:04:00;;;;;;;19.17;9.50;;;-3.70;99.90;;;;;;5060323;28;20154;-69
2021/12/22 04:06:26;;;;;;;13.70;8.48;;;-3.70;99.90;;;;;;5052642;28;20017;-69
2021/12/22 04:08:52;;;;;;;18.20;9.05;;;-3.80;99.90;;;;;;5069044;28;20020;-69
2021/12/22 04:11:18;;;;;;;17.27;9.38;;;-3.80;99.90;;;;;;5065070;28;20012;-69
2021/12/22 04:13:43;;;;;;;16.20;9.25;;;-3.90;99.90;;;;;;5068014;28;20056;-69
2021/12/22 04:16:09;;;;;;;14.73;9.10;;;-3.90;99.90;;;;;;5075562;28;20048;-69
2021/12/22 04:18:34;;;;;;;18.88;9.60;;;-4.00;99.90;;;;;;5072974;28;20039;-69
2021/12/22 04:21:00;;;;;;;15.23;8.82;;;-4.10;99.90;;;;;;5070062;28;20020;-69
2021/12/22 04:23:26;;;;;;;19.63;10.02;;;-4.10;99.90;;;;;;5070134;28;20028;-69
2021/12/22 04:25:52;;;;;;;15.77;9.30;;;-4.20;99.90;;;;;;5069071;28;20032;-69
2021/12/22 04:28:17;;;;;;;18.25;9.05;;;-4.20;99.90;;;;;;5065732;28;20060;-68
2021/12/22 04:30:48;;;;;;;15.02;8.63;;;-4.30;99.90;;;;;;5069772;28;20036;-67
2021/12/22 04:33:15;;;;;;;15.48;9.10;;;-4.30;99.90;;;;;;5070290;28;20504;-67
2021/12/22 04:35:42;;;;;;;17.25;8.88;;;-4.20;99.90;;;;;;5074102;28;20085;-68
2021/12/22 04:38:08;;;;;;;15.30;8.48;;;-4.20;99.90;;;;;;5064412;28;20025;-67
2021/12/22 04:40:34;;;;;;;18.02;9.57;;;-4.20;99.90;;;;;;5066198;28;20024;-68
2021/12/22 04:42:59;;;;;;;15.10;9.23;;;-4.20;99.90;;;;;;5064983;28;20032;-68
2021/12/22 04:45:25;;;;;;;18.38;9.63;;;-4.20;99.90;;;;;;5070984;28;20028;-69
2021/12/22 04:47:51;;;;;;;18.45;9.48;;;-4.20;99.90;;;;;;5066347;28;20531;-68
2021/12/22 04:50:19;;;;;;;17.80;9.65;;;-4.20;99.90;;;;;;5066977;28;20440;-68
2021/12/22 04:52:57;;;;;;;19.70;9.25;;;-4.20;99.90;;;;;;5068289;28;20591;-68
2021/12/22 04:55:27;;;;;;;17.60;8.82;;;-4.20;99.90;;;;;;5077372;28;20020;-69
2021/12/22 04:57:55;;;;;;;18.35;8.75;;;-4.20;99.90;;;;;;5069321;28;20032;-68
2021/12/22 05:00:23;;;;;;;16.88;8.57;;;-4.20;99.90;;;;;;5069383;28;20036;-70
2021/12/22 05:02:49;;;;;;;17.85;8.85;;;-4.20;99.90;;;;;;5066914;28;20038;-68
2021/12/22 05:05:14;;;;;;;24.00;8.85;;;-4.20;99.90;;;;;;5072109;28;20055;-69
2021/12/22 05:07:42;;;;;;;16.08;8.57;;;-4.20;99.90;;;;;;5069486;28;20500;-70
2021/12/22 05:10:08;;;;;;;18.35;8.65;;;-4.20;99.90;;;;;;5064511;28;20032;-68
2021/12/22 05:12:34;;;;;;;17.23;8.55;;;-4.20;99.90;;;;;;5064288;28;20033;-69
2021/12/22 05:15:00;;;;;;;15.95;9.05;;;-4.20;99.90;;;;;;5067766;28;20413;-68
2021/12/22 05:17:48;;;;;;;15.63;8.90;;;-4.20;99.90;;;;;;5065834;28;20085;-69
2021/12/22 05:20:13;;;;;;;14.15;8.35;;;-4.20;99.90;;;;;;5080129;28;20731;-70
2021/12/22 05:22:39;;;;;;;16.55;9.50;;;-4.20;99.90;;;;;;5052721;28;20094;-69
2021/12/22 05:25:07;;;;;;;17.13;9.23;;;-4.20;99.90;;;;;;5059447;28;20047;-70
2021/12/22 05:27:33;;;;;;;21.15;9.82;;;-4.20;99.90;;;;;;5065068;28;20059;-71
2021/12/22 05:29:59;;;;;;;16.40;9.27;;;-4.20;99.90;;;;;;5072014;28;20062;-70
2021/12/22 05:32:30;;;;;;;19.40;9.18;;;-4.20;99.90;;;;;;5064471;28;20489;-70
2021/12/22 05:34:57;;;;;;;24.03;10.57;;;-4.20;99.90;;;;;;5073198;28;20085;-68
2021/12/22 05:37:23;;;;;;;19.88;9.35;;;-4.20;99.90;;;;;;5064205;28;20105;-69
2021/12/22 05:39:48;;;;;;;15.80;9.77;;;-4.30;99.90;;;;;;5060695;28;20036;-70
2021/12/22 05:42:14;;;;;;;16.02;8.10;;;-4.30;99.90;;;;;;5054402;28;20027;-68
2021/12/22 05:44:41;;;;;;;14.20;8.45;;;-4.40;99.90;;;;;;5070960;28;20028;-70
2021/12/22 05:47:07;;;;;;;18.23;9.18;;;-4.40;99.90;;;;;;5069250;28;20453;-69
2021/12/22 05:49:32;;;;;;;16.35;8.65;;;-4.40;99.90;;;;;;5069013;28;20119;-69
2021/12/22 05:51:58;;;;;;;19.88;10.23;;;-4.50;99.90;;;;;;5063336;28;20036;-69
2021/12/22 05:54:24;;;;;;;15.23;8.80;;;-4.50;99.90;;;;;;5065439;28;20533;-70
2021/12/22 05:56:49;;;;;;;14.85;7.95;;;-4.60;99.90;;;;;;5064952;28;20392;-69
2021/12/22 05:59:15;;;;;;;15.45;9.25;;;-4.70;99.90;;;;;;5067699;28;20055;-69
2021/12/22 06:01:40;;;;;;;16.67;8.85;;;-4.80;99.90;;;;;;5073000;28;20111;-69
2021/12/22 06:04:07;;;;;;;21.08;9.77;;;-4.90;99.90;;;;;;5068595;28;20024;-70
2021/12/22 06:06:33;;;;;;;16.42;9.55;;;-4.90;99.90;;;;;;5078839;28;20043;-69
2021/12/22 06:08:58;;;;;;;18.02;9.60;;;-4.80;99.90;;;;;;5070637;28;20021;-70
2021/12/22 06:11:24;;;;;;;19.67;8.90;;;-4.80;99.90;;;;;;5059280;28;20016;-69
2021/12/22 06:13:50;;;;;;;16.77;8.68;;;-4.80;99.90;;;;;;5064221;28;20118;-69
2021/12/22 06:16:15;;;;;;;15.95;8.57;;;-4.80;99.90;;;;;;5056084;28;20495;-69
2021/12/22 06:18:44;;;;;;;19.23;9.98;;;-4.80;99.90;;;;;;5067774;28;20028;-70
2021/12/22 06:21:13;;;;;;;18.20;8.93;;;-4.80;99.90;;;;;;5062618;28;20092;-67
2021/12/22 06:23:40;;;;;;;19.30;9.77;;;-4.80;99.90;;;;;;5063374;28;20020;-70
2021/12/22 06:26:06;;;;;;;16.00;9.18;;;-4.70;99.90;;;;;;5052890;28;20028;-68
2021/12/22 06:28:32;;;;;;;17.08;9.23;;;-4.60;99.90;;;;;;5051522;28;20396;-68
2021/12/22 06:30:57;;;;;;;16.83;9.63;;;-4.60;99.90;;;;;;5066328;28;20024;-69
2021/12/22 06:33:23;;;;;;;17.92;9.73;;;-4.50;99.90;;;;;;5062117;28;20453;-70
2021/12/22 06:35:49;;;;;;;17.95;8.95;;;-4.50;99.90;;;;;;5069204;28;20036;-70
2021/12/22 06:38:16;;;;;;;18.15;9.25;;;-4.40;99.90;;;;;;5063286;28;20112;-69
2021/12/22 06:40:42;;;;;;;18.00;9.38;;;-4.40;99.90;;;;;;5059268;28;20397;-70
2021/12/22 06:43:08;;;;;;;18.25;9.65;;;-4.50;99.90;;;;;;5067727;28;20033;-68
2021/12/22 06:45:33;;;;;;;15.77;9.23;;;-4.50;99.90;;;;;;5067015;28;20028;-70
2021/12/22 06:47:59;;;;;;;13.07;8.63;;;-4.50;99.90;;;;;;5059409;28;20036;-70
2021/12/22 06:50:26;;;;;;;19.88;9.15;;;-4.40;99.90;;;;;;5066797;28;20075;-70
2021/12/22 06:52:51;;;;;;;15.13;8.73;;;-4.40;99.90;;;;;;5062278;28;20040;-68
2021/12/22 06:55:17;;;;;;;17.52;9.50;;;-4.40;99.90;;;;;;5061726;28;20056;-69
2021/12/22 06:57:44;;;;;;;16.13;8.63;;;-4.40;99.90;;;;;;5053123;28;20085;-70
2021/12/22 07:00:11;;;;;;;17.65;8.45;;;-4.40;99.90;;;;;;5069437;28;20030;-70
2021/12/22 07:02:38;;;;;;;17.05;8.85;;;-4.40;99.90;;;;;;5057714;28;20028;-69
2021/12/22 07:05:09;;;;;;;17.38;9.13;;;-4.40;99.90;;;;;;5067063;28;20028;-69
2021/12/22 07:07:35;;;;;;;18.13;8.98;;;-4.40;99.90;;;;;;5065088;28;20032;-69
2021/12/22 07:10:07;;;;;;;18.70;8.38;;;-4.50;99.90;;;;;;5061061;28;20020;-69
2021/12/22 07:12:34;;;;;;;16.27;9.23;;;-4.50;99.90;;;;;;5062270;28;20028;-69
2021/12/22 07:15:02;;;;;;;17.55;9.25;;;-4.50;99.90;;;;;;5071019;28;20027;-70
2021/12/22 07:17:28;;;;;;;18.95;9.43;;;-4.60;99.90;;;;;;5072811;28;20097;-69
2021/12/22 07:19:54;;;;;;;14.88;8.23;;;-4.70;99.90;;;;;;5064631;28;20028;-69
2021/12/22 07:22:19;;;;;;;15.32;8.55;;;-4.70;99.90;;;;;;5073395;28;20111;-69
2021/12/22 07:24:45;;;;;;;16.15;8.75;;;-4.70;99.90;;;;;;5066428;28;20115;-69
2021/12/22 07:27:11;;;;;;;15.77;9.05;;;-4.70;99.90;;;;;;5055565;28;20048;-68
2021/12/22 07:29:37;;;;;;;17.73;8.75;;;-4.80;99.90;;;;;;5060816;28;20028;-68
2021/12/22 07:32:04;;;;;;;16.90;8.82;;;-4.70;99.90;;;;;;5055332;28;20157;-69
2021/12/22 07:35:07;;;;;;;13.63;7.93;;;-4.70;99.90;;;;;;5065936;28;20024;-69
2021/12/22 07:37:41;;;;;;;17.98;8.13;;;-4.60;99.90;;;;;;5055079;28;20527;-69
2021/12/22 07:40:12;;;;;;;14.82;8.27;;;-4.50;99.90;;;;;;5063867;28;20037;-68
2021/12/22 07:42:38;;;;;;;14.90;8.48;;;-4.40;99.90;;;;;;5072104;28;20026;-68
2021/12/22 07:45:05;;;;;;;18.35;9.95;;;-4.40;99.90;;;;;;5069979;28;20025;-68
2021/12/22 07:47:31;;;;;;;17.88;9.57;;;-4.30;99.90;;;;;;5068757;28;20017;-68
2021/12/22 07:49:56;;;;;;;21.17;10.30;;;-4.30;99.90;;;;;;5056400;28;20027;-68
2021/12/22 07:52:26;;;;;;;21.23;11.65;;;-4.20;99.90;;;;;;5056140;28;20380;-68
2021/12/22 07:54:52;;;;;;;17.27;10.73;;;-4.20;99.90;;;;;;5055256;28;20056;-69
2021/12/22 07:57:17;;;;;;;24.08;11.63;;;-4.30;99.90;;;;;;5056197;28;20275;-68
2021/12/22 07:59:43;;;;;;;21.90;12.65;;;-4.30;99.90;;;;;;5059453;28;20029;-68
2021/12/22 08:02:10;;;;;;;23.83;12.95;;;-4.30;99.90;;;;;;5058454;28;20119;-69
2021/12/22 08:04:36;;;;;;;22.70;11.68;;;-4.30;99.90;;;;;;5056233;28;20032;-69
2021/12/22 08:07:02;;;;;;;19.55;10.80;;;-4.30;99.90;;;;;;5056205;28;20028;-69
2021/12/22 08:09:28;;;;;;;21.30;11.40;;;-4.30;99.90;;;;;;5059060;28;20052;-70
2021/12/22 08:11:55;;;;;;;19.75;11.50;;;-4.20;99.90;;;;;;5063697;28;20063;-70
2021/12/22 08:14:22;;;;;;;18.45;11.13;;;-4.10;99.90;;;;;;5066832;28;20108;-69
2021/12/22 08:16:51;;;;;;;23.38;12.05;;;-4.00;99.90;;;;;;5069191;28;20047;-69
2021/12/22 08:19:17;;;;;;;25.40;14.02;;;-4.00;99.90;;;;;;5056869;28;20031;-70
2021/12/22 08:21:44;;;;;;;22.70;11.98;;;-3.90;99.90;;;;;;5066965;28;20044;-69
2021/12/22 08:24:10;;;;;;;23.25;11.90;;;-3.90;99.90;;;;;;5067865;28;20024;-70
2021/12/22 08:26:36;;;;;;;20.67;12.00;;;-3.80;99.90;;;;;;5069714;28;20050;-70
2021/12/22 08:29:03;;;;;;;22.25;11.55;;;-3.80;99.90;;;;;;5060981;28;20081;-69
2021/12/22 08:31:29;;;;;;;20.15;11.23;;;-3.80;99.90;;;;;;5060823;28;20120;-68
2021/12/22 08:33:55;;;;;;;22.35;11.23;;;-3.70;99.90;;;;;;5065246;28;20111;-70
2021/12/22 08:39:08;;;;;;;20.95;11.25;;;-3.60;99.90;;;;;;5081044;28;20035;-69
2021/12/22 08:41:36;;;;;;;23.55;12.15;;;-3.60;99.90;;;;;;5068764;28;20395;-70
2021/12/22 08:44:05;;;;;;;20.70;11.20;;;-3.60;99.90;;;;;;5050480;28;20020;-70
2021/12/22 08:46:32;;;;;;;27.95;11.65;;;-3.50;99.90;;;;;;5060412;28;20098;-68
2021/12/22 08:48:58;;;;;;;24.20;12.35;;;-3.50;99.90;;;;;;5072214;28;20484;-68
2021/12/22 08:51:24;;;;;;;23.58;12.77;;;-3.50;99.90;;;;;;5070548;28;20039;-69
2021/12/22 08:53:52;;;;;;;21.40;12.40;;;-3.40;99.90;;;;;;5057583;28;20028;-69
2021/12/22 08:56:18;;;;;;;22.27;12.80;;;-3.30;99.90;;;;;;5056883;28;20051;-70
2021/12/22 08:58:44;;;;;;;23.67;12.90;;;-3.20;99.90;;;;;;5052683;28;20028;-70
2021/12/22 09:01:10;;;;;;;27.30;14.02;;;-3.20;99.90;;;;;;5054759;28;20056;-70
2021/12/22 09:03:36;;;;;;;34.88;13.68;;;-3.10;99.90;;;;;;5051491;28;20028;-69
2021/12/22 09:06:02;;;;;;;24.27;13.30;;;-3.00;99.90;;;;;;5055649;28;20060;-69
2021/12/22 09:08:28;;;;;;;27.15;13.30;;;-2.90;99.90;;;;;;5081791;28;20039;-69
2021/12/22 09:10:54;;;;;;;24.42;13.43;;;-2.90;99.90;;;;;;5060351;28;20028;-69
2021/12/22 09:13:20;;;;;;;23.02;12.20;;;-2.90;99.90;;;;;;5056424;28;20097;-69
2021/12/22 09:15:47;;;;;;;24.10;12.93;;;-2.90;99.90;;;;;;5065986;28;20016;-69
2021/12/22 09:18:13;;;;;;;26.42;12.85;;;-2.80;99.90;;;;;;5051914;28;20397;-70
2021/12/22 09:20:40;;;;;;;23.77;12.57;;;-2.80;99.90;;;;;;5061161;28;20028;-69
2021/12/22 09:23:05;;;;;;;26.80;13.38;;;-2.80;99.90;;;;;;5058908;28;20119;-69
2021/12/22 09:25:33;;;;;;;27.90;13.95;;;-2.70;99.90;;;;;;5055114;28;20115;-69
2021/12/22 09:27:59;;;;;;;25.80;13.07;;;-2.70;99.90;;;;;;5069384;28;20115;-69
2021/12/22 09:30:26;;;;;;;25.50;12.63;;;-2.70;99.90;;;;;;5040736;28;20025;-69
2021/12/22 09:32:51;;;;;;;24.08;13.00;;;-2.60;99.90;;;;;;5051199;28;20028;-69
2021/12/22 09:35:17;;;;;;;23.70;13.30;;;-2.60;99.90;;;;;;5049354;28;20082;-68
2021/12/22 09:37:43;;;;;;;27.73;13.00;;;-2.60;99.90;;;;;;5057138;28;20032;-68
2021/12/22 09:40:09;;;;;;;25.00;14.32;;;-2.50;99.90;;;;;;5062701;28;20033;-69
2021/12/22 09:42:34;;;;;;;22.88;13.50;;;-2.50;99.90;;;;;;5038850;28;20029;-68
2021/12/22 09:45:01;;;;;;;22.05;12.07;;;-2.40;99.90;;;;;;5056536;28;20032;-69
2021/12/22 09:47:32;;;;;;;23.70;13.05;;;-2.40;99.90;;;;;;5058290;28;20046;-68
2021/12/22 09:50:09;;;;;;;22.73;13.50;;;-2.40;99.90;;;;;;5064560;28;20020;-69
2021/12/22 09:52:37;;;;;;;23.52;13.68;;;-2.40;99.90;;;;;;5049924;28;20028;-69
2021/12/22 09:55:06;;;;;;;20.13;11.75;;;-2.40;99.90;;;;;;5051146;28;20102;-69
2021/12/22 09:57:32;;;;;;;22.70;12.07;;;-2.30;99.90;;;;;;5068961;28;20029;-69
2021/12/22 09:59:59;;;;;;;19.83;12.80;;;-2.30;99.90;;;;;;5059662;28;20059;-67
2021/12/22 10:02:29;;;;;;;23.30;12.88;;;-2.30;99.90;;;;;;5075382;28;20042;-68
2021/12/22 10:05:00;;;;;;;28.67;13.18;;;-2.20;99.90;;;;;;5052484;28;20577;-67
2021/12/22 10:07:30;;;;;;;20.42;12.50;;;-2.20;99.90;;;;;;5056292;28;20111;-68
2021/12/22 10:10:02;;;;;;;22.75;12.65;;;-2.10;99.90;;;;;;5056120;28;20032;-68
2021/12/22 10:12:28;;;;;;;24.92;12.73;;;-2.00;99.90;;;;;;5059141;28;20108;-68
2021/12/22 10:14:58;;;;;;;22.48;12.45;;;-2.00;99.90;;;;;;5149282;22;20127;-73
2021/12/22 10:17:34;;;;;;;23.70;12.20;;;-1.90;99.90;;;;;;5088645;28;20191;-72
2021/12/22 10:20:03;;;;;;;22.63;12.43;;;-1.80;99.90;;;;;;5097439;27;20023;-72
2021/12/22 10:22:34;;;;;;;22.08;12.20;;;-1.80;99.90;;;;;;5080686;28;20555;-72
2021/12/22 10:25:04;;;;;;;21.23;12.27;;;-1.80;99.90;;;;;;5070817;28;20054;-70
2021/12/22 10:27:30;;;;;;;22.35;12.45;;;-1.70;99.90;;;;;;5071003;28;20028;-70
2021/12/22 10:29:55;;;;;;;23.75;12.73;;;-1.60;99.90;;;;;;5070938;28;20073;-70
2021/12/22 10:32:21;;;;;;;23.17;12.27;;;-1.60;99.90;;;;;;5072688;28;20038;-71
2021/12/22 10:35:05;;;;;;;21.88;12.05;;;-1.60;99.90;;;;;;5069166;28;20059;-69
2021/12/22 10:37:39;;;;;;;22.08;12.18;;;-1.50;99.90;;;;;;5086713;28;20039;-69
2021/12/22 10:40:25;;;;;;;24.35;12.93;;;-1.50;99.90;;;;;;5069909;28;20036;-70
2021/12/22 10:42:52;;;;;;;21.60;12.40;;;-1.40;99.90;;;;;;5068773;28;20024;-71
2021/12/22 10:45:19;;;;;;;22.95;12.73;;;-1.40;99.90;;;;;;5074603;28;20031;-71
2021/12/22 10:50:32;;;;;;;24.25;12.85;;;-1.30;99.90;;;;;;5077481;28;20040;-70
2021/12/22 10:52:58;;;;;;;23.10;12.13;;;-1.30;99.90;;;;;;5071953;28;20035;-71
2021/12/22 10:55:24;;;;;;;21.38;12.38;;;-1.20;99.90;;;;;;5072622;28;20034;-71
2021/12/22 10:57:49;;;;;;;19.50;11.43;;;-1.20;99.90;;;;;;5071744;28;20122;-71
2021/12/22 11:00:18;;;;;;;20.75;12.23;;;-1.10;99.90;;;;;;5087309;28;20024;-71
2021/12/22 11:02:50;;;;;;;25.40;12.07;;;-1.10;99.90;;;;;;5070607;28;20052;-74
2021/12/22 11:05:28;;;;;;;21.80;11.98;;;-1.00;99.90;;;;;;5071413;28;20082;-73
2021/12/22 11:07:54;;;;;;;20.90;12.20;;;-0.90;99.90;;;;;;5074172;28;20035;-73
2021/12/22 11:10:28;;;;;;;21.40;11.40;;;-0.90;99.90;;;;;;5069882;28;20426;-67
2021/12/22 11:13:05;;;;;;;20.05;11.05;;;-0.90;99.90;;;;;;5069003;28;20135;-67
2021/12/22 11:15:43;;;;;;;22.25;12.25;;;-0.80;99.90;;;;;;5069186;28;20024;-67
2021/12/22 11:18:23;;;;;;;25.35;11.88;;;-0.80;99.90;;;;;;5067423;28;20415;-68
2021/12/22 11:21:10;;;;;;;25.98;12.32;;;-0.70;99.90;;;;;;5087008;28;20092;-70
2021/12/22 11:23:36;;;;;;;20.77;11.65;;;-0.70;99.90;;;;;;5074493;28;20028;-69
2021/12/22 11:26:03;;;;;;;21.48;11.93;;;-0.60;99.90;;;;;;5076101;28;20035;-69
2021/12/22 11:28:30;;;;;;;21.42;11.70;;;-0.60;99.90;;;;;;5074535;28;20504;-71
2021/12/22 11:30:57;;;;;;;20.42;11.07;;;-0.50;99.90;;;;;;5077660;28;20056;-68
2021/12/22 11:33:25;;;;;;;19.23;11.23;;;-0.50;99.90;;;;;;5078089;28;20028;-70
2021/12/22 11:35:54;;;;;;;18.58;11.70;;;-0.40;99.90;;;;;;5093280;28;20483;-69
2021/12/22 11:38:20;;;;;;;23.13;11.52;;;-0.40;99.90;;;;;;5094374;28;20535;-69
2021/12/22 11:40:54;;;;;;;19.13;11.05;;;-0.40;99.90;;;;;;5076425;28;20161;-69
2021/12/22 11:43:20;;;;;;;20.90;11.80;;;-0.30;99.90;;;;;;5073476;28;20020;-70
2021/12/22 11:45:48;;;;;;;19.73;10.95;;;-0.30;99.90;;;;;;5073678;28;20039;-72
2021/12/22 11:48:15;;;;;;;20.45;11.32;;;-0.20;99.90;;;;;;5075909;28;20165;-69
2021/12/22 11:50:45;;;;;;;19.42;11.50;;;-0.20;99.90;;;;;;5076564;28;20031;-69
2021/12/22 11:53:11;;;;;;;18.85;10.73;;;-0.10;99.90;;;;;;5077215;28;20016;-71
2021/12/22 11:55:38;;;;;;;17.42;10.65;;;0.00;99.90;;;;;;5076696;28;20111;-68
2021/12/22 11:58:25;;;;;;;17.63;11.30;;;0.00;99.90;;;;;;5076015;28;20082;-68
2021/12/22 12:00:54;;;;;;;18.38;10.63;;;0.10;99.90;;;;;;5076245;28;20039;-68
2021/12/22 12:03:23;;;;;;;21.05;10.38;;;0.20;99.90;;;;;;5076221;28;20029;-69
2021/12/22 12:06:16;;;;;;;19.98;10.30;;;0.20;99.90;;;;;;5097207;28;20027;-69
2021/12/22 12:08:48;;;;;;;17.50;9.88;;;0.30;99.90;;;;;;5078197;28;20039;-68
2021/12/22 12:11:51;;;;;;;17.77;10.43;;;0.40;99.90;;;;;;5083488;28;20020;-69
2021/12/22 12:14:38;;;;;;;17.88;10.30;;;0.60;99.90;;;;;;5059864;28;20032;-69
2021/12/22 12:23:27;;;;;;;18.92;10.65;;;1.20;99.90;;;;;;5101685;28;20054;-67
2021/12/22 12:25:54;;;;;;;18.23;10.75;;;1.30;99.90;;;;;;5072477;28;20020;-68
2021/12/22 12:28:21;;;;;;;17.42;10.45;;;1.50;99.90;;;;;;5074182;28;20042;-69
2021/12/22 12:30:56;;;;;;;17.90;10.70;;;1.60;99.90;;;;;;5075246;28;20024;-68
2021/12/22 12:33:45;;;;;;;18.85;10.07;;;1.60;99.90;;;;;;5092436;28;20028;-70
2021/12/22 12:36:13;;;;;;;15.43;9.95;;;1.70;99.90;;;;;;5065688;28;20115;-69
2021/12/22 12:38:47;;;;;;;19.17;11.23;;;1.80;99.90;;;;;;5066534;28;20028;-68
2021/12/22 12:41:28;;;;;;;18.23;10.57;;;1.90;99.90;;;;;;5079224;28;20034;-68
2021/12/22 12:44:00;;;;;;;16.95;10.98;;;2.00;99.90;;;;;;5076811;28;20024;-67
2021/12/22 12:46:38;;;;;;;21.52;10.80;;;2.00;99.90;;;;;;5071675;28;20031;-67
2021/12/22 12:49:03;;;;;;;18.85;10.32;;;2.10;99.90;;;;;;5056475;28;20035;-67
2021/12/22 12:51:32;;;;;;;19.10;11.10;;;2.20;99.90;;;;;;5071566;28;20024;-68
2021/12/22 12:54:20;;;;;;;16.50;10.73;;;2.30;99.90;;;;;;5075527;28;20085;-67
2021/12/22 12:57:21;;;;;;;16.92;10.07;;;2.30;99.90;;;;;;5058568;28;20052;-67
2021/12/22 12:59:54;;;;;;;18.05;9.88;;;2.40;99.90;;;;;;5072133;28;20039;-66
2021/12/22 13:02:28;;;;;;;15.75;10.43;;;2.50;99.90;;;;;;5091408;28;20051;-69
2021/12/22 13:05:03;;;;;;;15.32;10.15;;;2.50;99.90;;;;;;5075248;28;20081;-68